Agios Nikolas — SVAV5 — position and weather

sailwx.info

Track history (hours):
 
Tides and Currents Weather Stations Pressure Air Temp Water Temp Dewpoint Dewpoint Depression Visibility Wind Speed Wind Dir Waves Ship Positions

Agios Nikolas

Last reported at 2016-Dec-09 04:33 UTC. Time now 2016-Dec-10 16:34 UTC.
Position S 23°59' W 046°17'.

Length 225 m; draft 6.3 m.

Type: Cargo ship. MMSI: 240963000.

Date/timePositionNaut miles runAvg speedWind from/ knotsBaromVisibWave heightAir tempDewpointWater temp
2016-Dec-09 04:33S 23°59' W 046°17'5 4.8
2016-Dec-09 03:34S 24°02' W 046°21'1111.3
2016-Dec-09 02:34S 24°14' W 046°21'1111.4
2016-Dec-09 01:34S 24°22' W 046°13'1211.7
2016-Dec-09 00:33S 24°23' W 045°60'1211.6
2016-Dec-08 23:30S 24°25' W 045°46'1311.3
2016-Dec-08 22:22S 24°26' W 045°33'1011.3
2016-Dec-08 21:31S 24°28' W 045°22'1111.2
2016-Dec-08 20:33S 24°29' W 045°10'1411.1
2016-Dec-08 19:20S 24°30' W 044°55'1012.7
2016-Dec-08 18:32S 24°32' W 044°44'1313.5
2016-Dec-08 17:33S 24°33' W 044°30'4213.8
2016-Dec-08 14:29S 24°38' W 043°44'1213.3
2016-Dec-08 13:33S 24°40' W 043°30'1313.3
2016-Dec-08 12:33S 24°41' W 043°16'1313.3
2016-Dec-08 11:33S 24°43' W 043°01'1313.3
2016-Dec-08 10:33S 24°44' W 042°47'4112.8
2016-Dec-08 07:22S 24°49' W 042°02'1112.4
2016-Dec-08 06:28S 24°50' W 041°50'1212.7
2016-Dec-08 05:30S 24°52' W 041°36'  
Track history (hours):
 
Tides and Currents Weather Stations Pressure Air Temp Water Temp Dewpoint Dewpoint Depression Visibility Wind Speed Wind Dir Waves Ship Positions

Agios Nikolas

Last reported at 2016-Dec-09 04:33 UTC. Time now 2016-Dec-10 16:34 UTC.
Position S 23°59' W 046°17'.

Length 225 m; draft 6.3 m.

Type: Cargo ship. MMSI: 240963000.

Date/timePositionNaut miles runAvg speedWind from/ knotsBaromVisibWave heightAir tempDewpointWater temp
2016-Dec-09 04:33S 23°59' W 046°17'5 4.8
2016-Dec-09 03:34S 24°02' W 046°21'1111.3
2016-Dec-09 02:34S 24°14' W 046°21'1111.4
2016-Dec-09 01:34S 24°22' W 046°13'1211.7
2016-Dec-09 00:33S 24°23' W 045°60'1211.6
2016-Dec-08 23:30S 24°25' W 045°46'1311.3
2016-Dec-08 22:22S 24°26' W 045°33'1011.3
2016-Dec-08 21:31S 24°28' W 045°22'1111.2
2016-Dec-08 20:33S 24°29' W 045°10'1411.1
2016-Dec-08 19:20S 24°30' W 044°55'1012.7
2016-Dec-08 18:32S 24°32' W 044°44'1313.5
2016-Dec-08 17:33S 24°33' W 044°30'4213.8
2016-Dec-08 14:29S 24°38' W 043°44'1213.3
2016-Dec-08 13:33S 24°40' W 043°30'1313.3
2016-Dec-08 12:33S 24°41' W 043°16'1313.3
2016-Dec-08 11:33S 24°43' W 043°01'1313.3
2016-Dec-08 10:33S 24°44' W 042°47'4112.8
2016-Dec-08 07:22S 24°49' W 042°02'1112.4
2016-Dec-08 06:28S 24°50' W 041°50'1212.7
2016-Dec-08 05:30S 24°52' W 041°36'  

Dump ship's entire track history